sensor_id;sensor_type;location;lat;lon;timestamp;pressure;altitude;pressure_sealevel;temperature;humidity
3812;BME280;1921;49.368;11.068;2023-04-25T00:01:31;96976.69;;;9.98;74.92
3812;BME280;1921;49.368;11.068;2023-04-25T00:03:59;96854.44;;;9.12;75.06
3812;BME280;1921;49.368;11.068;2023-04-25T00:06:26;96945.19;;;9.65;75.40
3812;BME280;1921;49.368;11.068;2023-04-25T00:08:52;96999.56;;;10.03;75.14
3812;BME280;1921;49.368;11.068;2023-04-25T00:11:19;96936.50;;;9.58;75.76
3812;BME280;1921;49.368;11.068;2023-04-25T00:13:45;96958.91;;;9.80;75.27
3812;BME280;1921;49.368;11.068;2023-04-25T00:16:11;96938.22;;;9.72;75.32
3812;BME280;1921;49.368;11.068;2023-04-25T00:18:39;96949.81;;;9.69;75.00
3812;BME280;1921;49.368;11.068;2023-04-25T00:21:06;96931.66;;;9.55;74.69
3812;BME280;1921;49.368;11.068;2023-04-25T00:23:31;96952.22;;;9.71;75.09
3812;BME280;1921;49.368;11.068;2023-04-25T00:25:57;96992.09;;;9.99;75.17
3812;BME280;1921;49.368;11.068;2023-04-25T00:28:23;96955.88;;;9.77;75.26
3812;BME280;1921;49.368;11.068;2023-04-25T00:30:48;96941.97;;;9.63;75.80
3812;BME280;1921;49.368;11.068;2023-04-25T00:33:14;96970.25;;;9.73;76.87
3812;BME280;1921;49.368;11.068;2023-04-25T00:35:40;96992.41;;;9.83;77.79
3812;BME280;1921;49.368;11.068;2023-04-25T00:38:06;96913.22;;;9.28;77.75
3812;BME280;1921;49.368;11.068;2023-04-25T00:40:32;96985.53;;;9.76;79.36
3812;BME280;1921;49.368;11.068;2023-04-25T00:42:57;96948.28;;;9.32;80.27
3812;BME280;1921;49.368;11.068;2023-04-25T00:45:28;96990.13;;;9.52;80.99
3812;BME280;1921;49.368;11.068;2023-04-25T00:47:58;96960.56;;;9.38;81.31
3812;BME280;1921;49.368;11.068;2023-04-25T00:50:24;96939.97;;;9.22;81.36
3812;BME280;1921;49.368;11.068;2023-04-25T00:52:50;96931.03;;;9.10;81.40
3812;BME280;1921;49.368;11.068;2023-04-25T00:55:16;96936.56;;;9.22;81.77
3812;BME280;1921;49.368;11.068;2023-04-25T00:57:42;96962.03;;;9.26;82.13
3812;BME280;1921;49.368;11.068;2023-04-25T01:00:10;96909.72;;;9.00;82.24
3812;BME280;1921;49.368;11.068;2023-04-25T01:02:37;96945.91;;;9.16;82.08
3812;BME280;1921;49.368;11.068;2023-04-25T01:05:03;96890.38;;;8.87;82.73
3812;BME280;1921;49.368;11.068;2023-04-25T01:07:29;96963.72;;;9.34;82.74
3812;BME280;1921;49.368;11.068;2023-04-25T01:09:56;96969.47;;;9.29;83.75
3812;BME280;1921;49.368;11.068;2023-04-25T01:12:23;96940.72;;;9.16;84.51
3812;BME280;1921;49.368;11.068;2023-04-25T01:14:49;96938.03;;;9.09;83.80
3812;BME280;1921;49.368;11.068;2023-04-25T01:17:14;96977.00;;;9.24;84.01
3812;BME280;1921;49.368;11.068;2023-04-25T01:19:41;96930.72;;;8.98;84.63
3812;BME280;1921;49.368;11.068;2023-04-25T01:22:07;96927.50;;;8.96;84.46
3812;BME280;1921;49.368;11.068;2023-04-25T01:24:35;96920.50;;;8.97;84.88
3812;BME280;1921;49.368;11.068;2023-04-25T01:27:02;96908.84;;;8.93;84.65
3812;BME280;1921;49.368;11.068;2023-04-25T01:29:29;96959.97;;;9.22;85.26
3812;BME280;1921;49.368;11.068;2023-04-25T01:31:55;96944.78;;;9.04;85.28
3812;BME280;1921;49.368;11.068;2023-04-25T01:34:21;96964.94;;;9.16;85.56
3812;BME280;1921;49.368;11.068;2023-04-25T01:36:50;96942.19;;;9.04;85.08
3812;BME280;1921;49.368;11.068;2023-04-25T01:39:18;96936.19;;;9.03;85.44
3812;BME280;1921;49.368;11.068;2023-04-25T01:41:45;96976.19;;;9.24;85.24
3812;BME280;1921;49.368;11.068;2023-04-25T01:44:11;96946.66;;;9.10;85.71
3812;BME280;1921;49.368;11.068;2023-04-25T01:46:37;96935.31;;;8.96;85.17
3812;BME280;1921;49.368;11.068;2023-04-25T01:49:02;96932.31;;;8.99;85.45
3812;BME280;1921;49.368;11.068;2023-04-25T01:51:28;96961.41;;;9.24;86.13
3812;BME280;1921;49.368;11.068;2023-04-25T01:53:55;96930.38;;;9.01;86.80
3812;BME280;1921;49.368;11.068;2023-04-25T01:56:21;96942.06;;;9.12;87.03
3812;BME280;1921;49.368;11.068;2023-04-25T01:58:47;96961.22;;;9.26;86.61
3812;BME280;1921;49.368;11.068;2023-04-25T02:01:13;96975.97;;;9.40;86.64
3812;BME280;1921;49.368;11.068;2023-04-25T02:03:38;96923.38;;;9.02;86.42
3812;BME280;1921;49.368;11.068;2023-04-25T02:06:05;96886.56;;;8.83;86.75
3812;BME280;1921;49.368;11.068;2023-04-25T02:08:30;96982.97;;;9.39;86.77
3812;BME280;1921;49.368;11.068;2023-04-25T02:10:57;96922.63;;;9.08;86.00
3812;BME280;1921;49.368;11.068;2023-04-25T02:13:23;96928.63;;;9.08;86.91
3812;BME280;1921;49.368;11.068;2023-04-25T02:15:48;96933.28;;;9.13;86.75
3812;BME280;1921;49.368;11.068;2023-04-25T02:18:14;96963.50;;;9.35;86.86
3812;BME280;1921;49.368;11.068;2023-04-25T02:20:42;96913.13;;;9.00;87.22
3812;BME280;1921;49.368;11.068;2023-04-25T02:23:08;96920.38;;;9.05;87.02
3812;BME280;1921;49.368;11.068;2023-04-25T02:25:34;96936.06;;;9.11;87.47
3812;BME280;1921;49.368;11.068;2023-04-25T02:28:00;96925.16;;;9.01;87.23
3812;BME280;1921;49.368;11.068;2023-04-25T02:30:25;96957.38;;;9.22;88.04
3812;BME280;1921;49.368;11.068;2023-04-25T02:32:51;96963.66;;;9.27;87.60
3812;BME280;1921;49.368;11.068;2023-04-25T02:35:17;96913.97;;;9.01;87.86
3812;BME280;1921;49.368;11.068;2023-04-25T02:37:43;96916.38;;;9.02;87.87
3812;BME280;1921;49.368;11.068;2023-04-25T02:40:09;96948.78;;;9.21;87.63
3812;BME280;1921;49.368;11.068;2023-04-25T02:42:35;96884.78;;;8.84;87.67
3812;BME280;1921;49.368;11.068;2023-04-25T02:45:01;96842.25;;;8.55;88.31
3812;BME280;1921;49.368;11.068;2023-04-25T02:47:28;96917.59;;;9.06;88.07
3812;BME280;1921;49.368;11.068;2023-04-25T02:49:53;96909.50;;;8.95;88.06
3812;BME280;1921;49.368;11.068;2023-04-25T02:52:19;96932.28;;;9.14;88.03
3812;BME280;1921;49.368;11.068;2023-04-25T02:54:45;96913.72;;;8.81;89.14
3812;BME280;1921;49.368;11.068;2023-04-25T02:57:10;96886.50;;;8.77;88.59
3812;BME280;1921;49.368;11.068;2023-04-25T02:59:36;96902.03;;;8.92;88.91
3812;BME280;1921;49.368;11.068;2023-04-25T03:02:02;96908.84;;;8.93;88.91
3812;BME280;1921;49.368;11.068;2023-04-25T03:04:28;96897.06;;;8.75;88.53
3812;BME280;1921;49.368;11.068;2023-04-25T03:06:54;96898.19;;;8.87;88.95
3812;BME280;1921;49.368;11.068;2023-04-25T03:09:20;96876.19;;;8.69;88.71
3812;BME280;1921;49.368;11.068;2023-04-25T03:11:46;96892.69;;;8.76;88.67
3812;BME280;1921;49.368;11.068;2023-04-25T03:14:12;96890.81;;;8.70;88.51
3812;BME280;1921;49.368;11.068;2023-04-25T03:16:39;96938.09;;;8.95;89.25
3812;BME280;1921;49.368;11.068;2023-04-25T03:19:04;96886.16;;;8.65;89.10
3812;BME280;1921;49.368;11.068;2023-04-25T03:21:35;96896.63;;;8.72;88.79
3812;BME280;1921;49.368;11.068;2023-04-25T03:24:02;96874.63;;;8.53;89.09
3812;BME280;1921;49.368;11.068;2023-04-25T03:26:28;96931.38;;;8.85;89.09
3812;BME280;1921;49.368;11.068;2023-04-25T03:28:54;96860.75;;;8.46;89.35
3812;BME280;1921;49.368;11.068;2023-04-25T03:31:20;96897.16;;;8.67;89.24
3812;BME280;1921;49.368;11.068;2023-04-25T03:33:46;96856.91;;;8.42;89.40
3812;BME280;1921;49.368;11.068;2023-04-25T03:36:12;96925.81;;;8.88;89.47
3812;BME280;1921;49.368;11.068;2023-04-25T03:38:37;96874.16;;;8.49;89.89
3812;BME280;1921;49.368;11.068;2023-04-25T03:41:03;96921.34;;;8.82;89.57
3812;BME280;1921;49.368;11.068;2023-04-25T03:43:29;96880.44;;;8.55;89.86
3812;BME280;1921;49.368;11.068;2023-04-25T03:45:55;96857.59;;;8.50;89.56
3812;BME280;1921;49.368;11.068;2023-04-25T03:48:21;96906.50;;;8.76;89.23
3812;BME280;1921;49.368;11.068;2023-04-25T03:50:48;96877.13;;;8.61;89.01
3812;BME280;1921;49.368;11.068;2023-04-25T03:53:13;96940.69;;;8.95;89.12
3812;BME280;1921;49.368;11.068;2023-04-25T03:55:39;96910.63;;;8.71;89.13
3812;BME280;1921;49.368;11.068;2023-04-25T03:58:05;96837.91;;;8.12;89.65
3812;BME280;1921;49.368;11.068;2023-04-25T04:00:31;96869.44;;;8.38;89.26
3812;BME280;1921;49.368;11.068;2023-04-25T04:02:57;96925.50;;;8.62;89.64
3812;BME280;1921;49.368;11.068;2023-04-25T04:05:22;96901.25;;;8.40;89.00
3812;BME280;1921;49.368;11.068;2023-04-25T04:07:48;96931.06;;;8.59;89.00
3812;BME280;1921;49.368;11.068;2023-04-25T04:10:15;96942.28;;;8.59;88.88
3812;BME280;1921;49.368;11.068;2023-04-25T04:12:41;96902.22;;;8.24;88.70
3812;BME280;1921;49.368;11.068;2023-04-25T04:15:07;96883.84;;;8.11;88.67
3812;BME280;1921;49.368;11.068;2023-04-25T04:17:33;96873.75;;;8.01;89.09
3812;BME280;1921;49.368;11.068;2023-04-25T04:19:59;96894.25;;;8.11;88.85
3812;BME280;1921;49.368;11.068;2023-04-25T04:22:25;96907.13;;;8.19;89.41
3812;BME280;1921;49.368;11.068;2023-04-25T04:24:51;96918.69;;;8.31;88.74
3812;BME280;1921;49.368;11.068;2023-04-25T04:27:17;96907.69;;;8.29;88.70
3812;BME280;1921;49.368;11.068;2023-04-25T04:29:44;96853.41;;;8.05;88.52
3812;BME280;1921;49.368;11.068;2023-04-25T04:32:09;96949.88;;;8.61;88.23
3812;BME280;1921;49.368;11.068;2023-04-25T04:34:35;96889.69;;;8.43;87.53
3812;BME280;1921;49.368;11.068;2023-04-25T04:37:01;96898.44;;;8.56;86.83
3812;BME280;1921;49.368;11.068;2023-04-25T04:39:27;96894.94;;;8.64;86.36
3812;BME280;1921;49.368;11.068;2023-04-25T04:41:53;96881.50;;;8.60;84.78
3812;BME280;1921;49.368;11.068;2023-04-25T04:44:19;96885.78;;;8.68;84.51
3812;BME280;1921;49.368;11.068;2023-04-25T04:46:46;96893.31;;;8.78;84.13
3812;BME280;1921;49.368;11.068;2023-04-25T04:49:12;96876.25;;;8.75;84.32
3812;BME280;1921;49.368;11.068;2023-04-25T04:51:39;96906.91;;;8.95;83.73
3812;BME280;1921;49.368;11.068;2023-04-25T04:54:06;96886.56;;;8.83;83.43
3812;BME280;1921;49.368;11.068;2023-04-25T04:56:32;96912.97;;;8.87;83.60
3812;BME280;1921;49.368;11.068;2023-04-25T04:58:58;96937.13;;;9.17;82.90
3812;BME280;1921;49.368;11.068;2023-04-25T05:01:25;96888.16;;;8.84;82.87
3812;BME280;1921;49.368;11.068;2023-04-25T05:03:52;96910.09;;;8.97;83.59
3812;BME280;1921;49.368;11.068;2023-04-25T05:06:21;96937.13;;;9.17;82.91
3812;BME280;1921;49.368;11.068;2023-04-25T05:08:46;96930.31;;;9.16;83.18
3812;BME280;1921;49.368;11.068;2023-04-25T05:11:12;96864.19;;;8.68;82.88
3812;BME280;1921;49.368;11.068;2023-04-25T05:13:38;96902.66;;;8.94;83.15
3812;BME280;1921;49.368;11.068;2023-04-25T05:16:04;96920.97;;;9.22;82.67
3812;BME280;1921;49.368;11.068;2023-04-25T05:18:29;96906.28;;;9.14;82.17
3812;BME280;1921;49.368;11.068;2023-04-25T05:20:55;96923.22;;;9.31;80.82
3812;BME280;1921;49.368;11.068;2023-04-25T05:23:21;96900.47;;;9.33;80.72
3812;BME280;1921;49.368;11.068;2023-04-25T05:25:47;96951.63;;;9.69;80.64
3812;BME280;1921;49.368;11.068;2023-04-25T05:28:13;96967.66;;;9.94;80.18
3812;BME280;1921;49.368;11.068;2023-04-25T05:30:39;96906.50;;;9.62;80.25
3812;BME280;1921;49.368;11.068;2023-04-25T05:33:05;96914.47;;;9.82;79.51
3812;BME280;1921;49.368;11.068;2023-04-25T05:35:31;96895.66;;;9.86;79.02
3812;BME280;1921;49.368;11.068;2023-04-25T05:37:57;96970.56;;;10.34;77.67
3812;BME280;1921;49.368;11.068;2023-04-25T05:40:23;96974.75;;;10.35;77.96
3812;BME280;1921;49.368;11.068;2023-04-25T05:42:51;96930.47;;;10.07;77.87
3812;BME280;1921;49.368;11.068;2023-04-25T05:45:17;96923.06;;;10.10;76.37
3812;BME280;1921;49.368;11.068;2023-04-25T05:47:43;96891.19;;;9.80;77.20
3812;BME280;1921;49.368;11.068;2023-04-25T05:50:09;96924.19;;;9.94;77.46
3812;BME280;1921;49.368;11.068;2023-04-25T05:52:35;96931.56;;;9.91;77.47
3812;BME280;1921;49.368;11.068;2023-04-25T05:55:01;96950.50;;;10.06;78.28
3812;BME280;1921;49.368;11.068;2023-04-25T05:57:27;96914.63;;;9.80;77.38
3812;BME280;1921;49.368;11.068;2023-04-25T05:59:53;96909.38;;;9.74;78.32
3812;BME280;1921;49.368;11.068;2023-04-25T06:02:20;96914.50;;;9.60;79.10
3812;BME280;1921;49.368;11.068;2023-04-25T06:04:49;96968.25;;;10.24;79.11
3812;BME280;1921;49.368;11.068;2023-04-25T06:07:15;96962.28;;;10.30;77.31
3812;BME280;1921;49.368;11.068;2023-04-25T06:09:41;96923.81;;;10.26;77.23
3812;BME280;1921;49.368;11.068;2023-04-25T06:12:07;96974.50;;;10.58;74.82
3812;BME280;1921;49.368;11.068;2023-04-25T06:14:34;96935.88;;;10.33;75.16
3812;BME280;1921;49.368;11.068;2023-04-25T06:17:00;96975.13;;;10.66;75.43
3812;BME280;1921;49.368;11.068;2023-04-25T06:19:35;96907.19;;;10.33;74.29
3812;BME280;1921;49.368;11.068;2023-04-25T06:22:01;96959.91;;;10.70;74.12
3812;BME280;1921;49.368;11.068;2023-04-25T06:24:28;96963.06;;;10.59;75.00
3812;BME280;1921;49.368;11.068;2023-04-25T06:26:54;96907.91;;;10.20;75.61
3812;BME280;1921;49.368;11.068;2023-04-25T06:29:20;96957.66;;;10.60;74.66
3812;BME280;1921;49.368;11.068;2023-04-25T06:31:46;96923.63;;;10.34;75.24
3812;BME280;1921;49.368;11.068;2023-04-25T06:34:12;96936.19;;;10.23;74.57
3812;BME280;1921;49.368;11.068;2023-04-25T06:36:38;96976.72;;;10.61;75.13
3812;BME280;1921;49.368;11.068;2023-04-25T06:39:04;96932.81;;;10.30;76.64
3812;BME280;1921;49.368;11.068;2023-04-25T06:41:30;96927.94;;;10.20;78.06
3812;BME280;1921;49.368;11.068;2023-04-25T06:43:55;96940.59;;;10.23;79.35
3812;BME280;1921;49.368;11.068;2023-04-25T06:46:21;96926.91;;;10.14;79.74
3812;BME280;1921;49.368;11.068;2023-04-25T06:48:47;96962.19;;;10.17;83.89
3812;BME280;1921;49.368;11.068;2023-04-25T06:51:13;96969.38;;;9.87;86.01
3812;BME280;1921;49.368;11.068;2023-04-25T06:53:39;96989.16;;;9.81;88.23
3812;BME280;1921;49.368;11.068;2023-04-25T06:56:05;96979.22;;;9.63;91.08
3812;BME280;1921;49.368;11.068;2023-04-25T06:58:31;96958.69;;;9.32;93.15
3812;BME280;1921;49.368;11.068;2023-04-25T07:00:57;96822.94;;;8.28;92.97
3812;BME280;1921;49.368;11.068;2023-04-25T07:03:23;96934.50;;;8.96;92.52
3812;BME280;1921;49.368;11.068;2023-04-25T07:05:50;96930.75;;;8.83;92.57
3812;BME280;1921;49.368;11.068;2023-04-25T07:08:16;96926.22;;;8.71;95.16
3812;BME280;1921;49.368;11.068;2023-04-25T07:10:41;96939.81;;;8.73;94.78
3812;BME280;1921;49.368;11.068;2023-04-25T07:13:07;96952.91;;;8.79;96.75
3812;BME280;1921;49.368;11.068;2023-04-25T07:15:33;96971.63;;;8.89;94.68
3812;BME280;1921;49.368;11.068;2023-04-25T07:17:59;96976.97;;;9.03;97.16
3812;BME280;1921;49.368;11.068;2023-04-25T07:20:25;96955.38;;;8.87;95.92
3812;BME280;1921;49.368;11.068;2023-04-25T07:22:50;96942.50;;;8.79;97.59
3812;BME280;1921;49.368;11.068;2023-04-25T07:25:17;96964.34;;;9.00;98.69
3812;BME280;1921;49.368;11.068;2023-04-25T07:27:43;96968.53;;;9.15;97.52
3812;BME280;1921;49.368;11.068;2023-04-25T07:30:10;96958.00;;;9.24;98.72
3812;BME280;1921;49.368;11.068;2023-04-25T07:32:36;96952.84;;;9.30;96.87
3812;BME280;1921;49.368;11.068;2023-04-25T07:35:02;97019.97;;;9.78;96.78
3812;BME280;1921;49.368;11.068;2023-04-25T07:37:28;96977.78;;;9.61;96.99
3812;BME280;1921;49.368;11.068;2023-04-25T07:39:54;96952.44;;;9.48;96.61
3812;BME280;1921;49.368;11.068;2023-04-25T07:42:20;96906.91;;;9.16;94.07
3812;BME280;1921;49.368;11.068;2023-04-25T07:44:46;96898.84;;;8.89;93.21
3812;BME280;1921;49.368;11.068;2023-04-25T07:47:12;96966.34;;;9.19;92.92
3812;BME280;1921;49.368;11.068;2023-04-25T07:49:39;96995.19;;;9.03;89.29
3812;BME280;1921;49.368;11.068;2023-04-25T07:52:06;97017.44;;;8.90;89.89
3812;BME280;1921;49.368;11.068;2023-04-25T07:54:32;96944.81;;;8.00;92.50
3812;BME280;1921;49.368;11.068;2023-04-25T07:56:58;97021.22;;;8.58;88.62
3812;BME280;1921;49.368;11.068;2023-04-25T07:59:24;97020.16;;;8.53;90.61
3812;BME280;1921;49.368;11.068;2023-04-25T08:01:50;96960.72;;;8.20;90.70
3812;BME280;1921;49.368;11.068;2023-04-25T08:04:16;97054.56;;;8.84;92.35
3812;BME280;1921;49.368;11.068;2023-04-25T08:06:42;97013.72;;;8.63;92.47
3812;BME280;1921;49.368;11.068;2023-04-25T08:09:09;97016.72;;;8.67;90.54
3812;BME280;1921;49.368;11.068;2023-04-25T08:11:36;97047.66;;;8.77;89.82
3812;BME280;1921;49.368;11.068;2023-04-25T08:14:02;97024.44;;;8.46;88.49
3812;BME280;1921;49.368;11.068;2023-04-25T08:16:28;97001.94;;;8.00;91.46
3812;BME280;1921;49.368;11.068;2023-04-25T08:18:54;96976.66;;;7.79;91.56
3812;BME280;1921;49.368;11.068;2023-04-25T08:21:20;96904.47;;;7.22;92.68
3812;BME280;1921;49.368;11.068;2023-04-25T08:23:46;97023.91;;;8.13;93.70
3812;BME280;1921;49.368;11.068;2023-04-25T08:26:12;97042.72;;;8.15;93.95
3812;BME280;1921;49.368;11.068;2023-04-25T08:28:38;97027.78;;;8.31;95.81
3812;BME280;1921;49.368;11.068;2023-04-25T08:31:04;97002.50;;;8.25;94.63
3812;BME280;1921;49.368;11.068;2023-04-25T08:33:30;97068.53;;;8.69;93.40
3812;BME280;1921;49.368;11.068;2023-04-25T08:35:57;97019.72;;;8.64;93.93
3812;BME280;1921;49.368;11.068;2023-04-25T08:38:23;97027.84;;;8.90;95.62
3812;BME280;1921;49.368;11.068;2023-04-25T08:40:50;96969.47;;;8.93;97.60
3812;BME280;1921;49.368;11.068;2023-04-25T08:43:19;97084.78;;;10.09;95.37
3812;BME280;1921;49.368;11.068;2023-04-25T08:45:46;97060.19;;;10.18;91.58
3812;BME280;1921;49.368;11.068;2023-04-25T08:48:14;96949.59;;;9.92;93.17
3812;BME280;1921;49.368;11.068;2023-04-25T08:50:53;97044.34;;;10.13;80.02
3812;BME280;1921;49.368;11.068;2023-04-25T08:53:27;97017.03;;;10.09;81.46
3812;BME280;1921;49.368;11.068;2023-04-25T08:55:56;97076.38;;;11.25;85.36
3812;BME280;1921;49.368;11.068;2023-04-25T08:58:22;97073.78;;;11.87;84.44
3812;BME280;1921;49.368;11.068;2023-04-25T09:00:51;97053.69;;;12.27;79.52
3812;BME280;1921;49.368;11.068;2023-04-25T09:03:20;96993.75;;;12.32;79.25
3812;BME280;1921;49.368;11.068;2023-04-25T09:05:46;96984.81;;;12.73;79.48
3812;BME280;1921;49.368;11.068;2023-04-25T09:08:12;97061.34;;;14.02;81.58
3812;BME280;1921;49.368;11.068;2023-04-25T09:10:38;97026.38;;;14.15;67.89
3812;BME280;1921;49.368;11.068;2023-04-25T09:13:07;97090.97;;;14.66;61.77
3812;BME280;1921;49.368;11.068;2023-04-25T09:15:55;97084.00;;;14.78;66.17
3812;BME280;1921;49.368;11.068;2023-04-25T09:20:57;97055.66;;;14.62;64.53
3812;BME280;1921;49.368;11.068;2023-04-25T09:23:23;97083.59;;;14.25;65.39
3812;BME280;1921;49.368;11.068;2023-04-25T09:25:52;97082.78;;;13.61;65.70
3812;BME280;1921;49.368;11.068;2023-04-25T09:28:45;97104.91;;;13.20;67.47
3812;BME280;1921;49.368;11.068;2023-04-25T09:31:28;97055.38;;;11.67;70.66
3812;BME280;1921;49.368;11.068;2023-04-25T09:34:00;97119.06;;;12.27;74.37
3812;BME280;1921;49.368;11.068;2023-04-25T09:36:30;96883.34;;;10.36;71.98
3812;BME280;1921;49.368;11.068;2023-04-25T09:38:56;96879.44;;;11.81;77.58
3812;BME280;1921;49.368;11.068;2023-04-25T09:41:25;96999.59;;;12.01;67.04
3812;BME280;1921;49.368;11.068;2023-04-25T09:43:51;96649.31;;;10.12;64.53
3812;BME280;1921;49.368;11.068;2023-04-25T09:46:17;97035.78;;;12.50;71.94
3812;BME280;1921;49.368;11.068;2023-04-25T09:48:52;96894.00;;;13.25;57.08
3812;BME280;1921;49.368;11.068;2023-04-25T09:51:19;97029.78;;;14.47;59.63
3812;BME280;1921;49.368;11.068;2023-04-25T09:53:46;96939.75;;;14.84;54.39
3812;BME280;1921;49.368;11.068;2023-04-25T09:56:16;96961.81;;;15.73;54.43
3812;BME280;1921;49.368;11.068;2023-04-25T09:58:42;97059.91;;;16.62;52.45
3812;BME280;1921;49.368;11.068;2023-04-25T10:01:10;97016.44;;;15.22;50.86
3812;BME280;1921;49.368;11.068;2023-04-25T10:03:40;97024.66;;;14.27;57.37
3812;BME280;1921;49.368;11.068;2023-04-25T10:06:19;96913.72;;;13.27;58.44
3812;BME280;1921;49.368;11.068;2023-04-25T10:08:45;97042.06;;;13.14;56.59
3812;BME280;1921;49.368;11.068;2023-04-25T10:11:16;96946.91;;;12.10;61.44
3812;BME280;1921;49.368;11.068;2023-04-25T10:13:43;96975.28;;;12.13;61.60
3812;BME280;1921;49.368;11.068;2023-04-25T10:16:10;96947.72;;;11.78;65.16
3812;BME280;1921;49.368;11.068;2023-04-25T10:18:37;96983.50;;;11.97;60.12
3812;BME280;1921;49.368;11.068;2023-04-25T10:21:04;96999.19;;;11.97;59.96
3812;BME280;1921;49.368;11.068;2023-04-25T10:23:32;97038.97;;;12.65;61.79
3812;BME280;1921;49.368;11.068;2023-04-25T10:26:00;97026.09;;;13.73;64.89
3812;BME280;1921;49.368;11.068;2023-04-25T10:28:26;96951.81;;;14.30;54.43
3812;BME280;1921;49.368;11.068;2023-04-25T10:33:39;96983.44;;;15.26;50.32
3812;BME280;1921;49.368;11.068;2023-04-25T10:36:21;97028.25;;;15.80;48.59
3812;BME280;1921;49.368;11.068;2023-04-25T10:38:49;97078.19;;;13.88;52.17
3812;BME280;1921;49.368;11.068;2023-04-25T10:41:22;96958.13;;;11.38;57.58
3812;BME280;1921;49.368;11.068;2023-04-25T10:43:50;96993.34;;;11.69;62.43
3812;BME280;1921;49.368;11.068;2023-04-25T10:46:28;97064.06;;;12.93;59.08
3812;BME280;1921;49.368;11.068;2023-04-25T10:49:00;97043.25;;;13.18;57.07
3812;BME280;1921;49.368;11.068;2023-04-25T10:51:32;97098.03;;;13.71;60.44
3812;BME280;1921;49.368;11.068;2023-04-25T10:54:07;97051.06;;;13.76;54.46
3812;BME280;1921;49.368;11.068;2023-04-25T10:59:13;97043.50;;;13.03;57.10
3812;BME280;1921;49.368;11.068;2023-04-25T11:01:42;96995.94;;;12.42;57.32
3812;BME280;1921;49.368;11.068;2023-04-25T11:04:29;96919.91;;;12.50;54.73
3812;BME280;1921;49.368;11.068;2023-04-25T11:07:06;97106.69;;;14.41;56.28
3812;BME280;1921;49.368;11.068;2023-04-25T11:09:35;97062.50;;;14.13;50.22
3812;BME280;1921;49.368;11.068;2023-04-25T11:12:01;97094.03;;;14.32;49.47
3812;BME280;1921;49.368;11.068;2023-04-25T11:14:27;96981.00;;;13.20;53.78
3812;BME280;1921;49.368;11.068;2023-04-25T11:16:57;97080.13;;;14.31;51.07
3812;BME280;1921;49.368;11.068;2023-04-25T11:19:25;97056.78;;;14.23;49.72
3812;BME280;1921;49.368;11.068;2023-04-25T11:21:58;97015.53;;;14.12;48.87
3812;BME280;1921;49.368;11.068;2023-04-25T11:24:29;97084.78;;;14.79;49.80
3812;BME280;1921;49.368;11.068;2023-04-25T11:26:55;97046.22;;;14.79;47.99
3812;BME280;1921;49.368;11.068;2023-04-25T11:29:26;97048.66;;;15.48;46.03
3812;BME280;1921;49.368;11.068;2023-04-25T11:31:54;97034.72;;;15.66;44.54
3812;BME280;1921;49.368;11.068;2023-04-25T11:34:21;97074.84;;;16.03;42.92
3812;BME280;1921;49.368;11.068;2023-04-25T11:36:47;97083.81;;;16.25;44.83
3812;BME280;1921;49.368;11.068;2023-04-25T11:39:13;97049.72;;;15.58;42.61
3812;BME280;1921;49.368;11.068;2023-04-25T11:41:41;97024.78;;;15.01;46.03
3812;BME280;1921;49.368;11.068;2023-04-25T11:44:07;96950.88;;;14.24;46.32
3812;BME280;1921;49.368;11.068;2023-04-25T11:46:37;97098.03;;;14.34;45.52
3812;BME280;1921;49.368;11.068;2023-04-25T11:49:02;97072.72;;;14.21;45.80
3812;BME280;1921;49.368;11.068;2023-04-25T11:51:30;97026.84;;;13.81;44.45
3812;BME280;1921;49.368;11.068;2023-04-25T11:53:57;97061.91;;;13.41;45.68
3812;BME280;1921;49.368;11.068;2023-04-25T11:56:23;97068.66;;;13.11;46.66
3812;BME280;1921;49.368;11.068;2023-04-25T11:59:03;97076.34;;;12.79;47.74
3812;BME280;1921;49.368;11.068;2023-04-25T12:01:33;97124.78;;;13.48;46.74
3812;BME280;1921;49.368;11.068;2023-04-25T12:04:23;97103.78;;;13.55;46.55
3812;BME280;1921;49.368;11.068;2023-04-25T12:06:53;97128.22;;;13.87;46.89
3812;BME280;1921;49.368;11.068;2023-04-25T12:09:31;97101.22;;;14.18;44.32
3812;BME280;1921;49.368;11.068;2023-04-25T12:12:00;97111.28;;;14.46;45.13
3812;BME280;1921;49.368;11.068;2023-04-25T12:14:34;97098.16;;;14.21;46.05
3812;BME280;1921;49.368;11.068;2023-04-25T12:17:03;97095.91;;;14.24;44.45
3812;BME280;1921;49.368;11.068;2023-04-25T12:19:36;97068.75;;;14.87;43.44
3812;BME280;1921;49.368;11.068;2023-04-25T12:22:03;97083.53;;;14.32;42.22
3812;BME280;1921;49.368;11.068;2023-04-25T12:24:29;97113.78;;;14.02;44.35
3812;BME280;1921;49.368;11.068;2023-04-25T12:27:04;97129.31;;;15.11;42.54
3812;BME280;1921;49.368;11.068;2023-04-25T12:29:32;97033.50;;;14.76;39.89
3812;BME280;1921;49.368;11.068;2023-04-25T12:31:59;97137.03;;;13.99;42.88
3812;BME280;1921;49.368;11.068;2023-04-25T12:34:25;97102.13;;;13.67;43.50
3812;BME280;1921;49.368;11.068;2023-04-25T12:36:52;97149.03;;;14.13;43.68
3812;BME280;1921;49.368;11.068;2023-04-25T12:39:23;97095.75;;;14.19;43.05
3812;BME280;1921;49.368;11.068;2023-04-25T12:41:51;97128.56;;;14.60;41.57
3812;BME280;1921;49.368;11.068;2023-04-25T12:44:20;97095.16;;;14.49;41.63
3812;BME280;1921;49.368;11.068;2023-04-25T12:46:47;97111.69;;;14.18;41.89
3812;BME280;1921;49.368;11.068;2023-04-25T12:49:13;97146.78;;;14.55;42.64
3812;BME280;1921;49.368;11.068;2023-04-25T12:51:39;97087.94;;;15.06;41.82
3812;BME280;1921;49.368;11.068;2023-04-25T12:54:07;97140.91;;;15.58;40.94
3812;BME280;1921;49.368;11.068;2023-04-25T12:56:34;97127.63;;;14.98;40.83
3812;BME280;1921;49.368;11.068;2023-04-25T12:59:00;97116.63;;;13.63;43.81
3812;BME280;1921;49.368;11.068;2023-04-25T13:01:28;97162.50;;;13.79;45.18
3812;BME280;1921;49.368;11.068;2023-04-25T13:03:54;97151.94;;;13.47;45.33
3812;BME280;1921;49.368;11.068;2023-04-25T13:06:21;97095.44;;;13.13;46.22
3812;BME280;1921;49.368;11.068;2023-04-25T13:08:48;97178.31;;;13.59;46.47
3812;BME280;1921;49.368;11.068;2023-04-25T13:11:14;97143.78;;;12.97;45.54
3812;BME280;1921;49.368;11.068;2023-04-25T13:13:44;97147.81;;;12.66;46.98
3812;BME280;1921;49.368;11.068;2023-04-25T13:16:10;97187.69;;;12.95;47.65
3812;BME280;1921;49.368;11.068;2023-04-25T13:18:36;97127.31;;;12.50;47.41
3812;BME280;1921;49.368;11.068;2023-04-25T13:21:01;97147.22;;;12.78;47.66
3812;BME280;1921;49.368;11.068;2023-04-25T13:23:29;97137.75;;;12.77;47.28
3812;BME280;1921;49.368;11.068;2023-04-25T13:25:55;97132.94;;;12.87;47.15